Time;durP1;ratioP1;P1;durP2;ratioP2;P2;SDS_P1;SDS_P2;PMS_P1;PMS_P2;Temp;Humidity;BMP_temperature;BMP_pressure;BME280_temperature;BME280_humidity;BME280_pressure;Samples;Min_cycle;Max_cycle;Signal;HPM_P1;HPM_P2
2022/04/03 00:00:35;;;;;;;2.73;2.50;;;;;;;6.36;51.23;96933.41;5113389;28;20152;-66
2022/04/03 00:03:02;;;;;;;3.27;2.80;;;;;;;6.49;51.91;96928.16;5095994;28;20177;-66
2022/04/03 00:05:28;;;;;;;3.13;2.60;;;;;;;6.33;51.66;96944.34;5114176;28;20040;-66
2022/04/03 00:07:54;;;;;;;3.27;2.97;;;;;;;6.47;51.82;96943.38;5114108;28;20043;-66
2022/04/03 00:10:21;;;;;;;4.03;2.80;;;;;;;6.46;51.97;96945.19;5095348;28;20051;-66
2022/04/03 00:12:47;;;;;;;3.00;2.60;;;;;;;6.41;51.73;96944.97;5112269;28;20504;-66
2022/04/03 00:15:16;;;;;;;3.80;3.00;;;;;;;6.41;51.92;96944.97;5112123;28;20062;-66
2022/04/03 00:17:43;;;;;;;3.83;3.03;;;;;;;6.24;51.77;96904.16;5112200;28;20471;-70
2022/04/03 00:20:12;;;;;;;4.27;3.60;;;;;;;6.37;52.11;96935.84;5112035;28;20051;-66
2022/04/03 00:22:38;;;;;;;6.17;3.90;;;;;;;6.23;52.00;96933.34;5113791;28;20059;-63
2022/04/03 00:25:04;;;;;;;4.40;4.00;;;;;;;6.39;52.05;96938.28;5113089;28;20400;-66
2022/04/03 00:27:30;;;;;;;5.47;4.80;;;;;;;6.19;52.27;96908.41;5112852;28;20073;-65
2022/04/03 00:29:57;;;;;;;5.50;4.57;;;;;;;6.38;52.09;96929.56;5077930;28;20465;-65
2022/04/03 00:32:23;;;;;;;12.37;6.00;;;;;;;6.29;52.10;96917.56;5077851;28;20036;-64
2022/04/03 00:34:49;;;;;;;6.23;5.37;;;;;;;6.26;52.35;96927.69;5111679;28;20130;-66
2022/04/03 00:37:18;;;;;;;9.00;5.50;;;;;;;6.27;51.75;96924.84;5111615;28;20489;-67
2022/04/03 00:39:44;;;;;;;6.23;4.90;;;;;;;6.28;52.24;96921.22;5113149;28;20050;-68
2022/04/03 00:42:10;;;;;;;6.60;4.87;;;;;;;6.41;52.02;96923.09;5113320;28;20067;-65
2022/04/03 00:44:36;;;;;;;5.73;4.60;;;;;;;6.32;52.05;96917.16;5112890;28;20129;-65
2022/04/03 00:47:03;;;;;;;5.07;3.97;;;;;;;6.43;52.27;96913.97;5094644;28;20107;-64
2022/04/03 00:49:30;;;;;;;4.93;3.87;;;;;;;6.42;52.08;96917.63;5111617;28;20117;-65
2022/04/03 00:51:57;;;;;;;3.50;3.20;;;;;;;6.36;51.92;96905.25;5111515;28;20050;-65
2022/04/03 00:54:22;;;;;;;4.30;3.90;;;;;;;6.32;51.82;96916.38;5111212;28;20039;-65
2022/04/03 00:56:49;;;;;;;4.50;3.97;;;;;;;6.31;51.98;96920.00;5112676;28;20040;-65
2022/04/03 00:59:15;;;;;;;4.73;3.87;;;;;;;6.27;51.96;96911.66;5094525;28;20082;-67
2022/04/03 01:01:46;;;;;;;4.60;3.97;;;;;;;6.56;52.23;96914.03;5111636;28;20067;-65
2022/04/03 01:04:12;;;;;;;6.17;4.57;;;;;;;6.36;52.24;96902.59;5111449;28;20545;-65
2022/04/03 01:06:38;;;;;;;5.80;4.40;;;;;;;6.33;52.05;96902.19;5111274;28;20507;-64
2022/04/03 01:09:04;;;;;;;5.20;4.20;;;;;;;6.30;52.00;96903.41;5112389;28;20047;-65
2022/04/03 01:11:31;;;;;;;4.10;3.60;;;;;;;6.33;52.06;96900.38;5093300;28;20101;-65
2022/04/03 01:13:57;;;;;;;5.27;3.97;;;;;;;6.31;51.97;96894.47;5112733;28;20043;-65
2022/04/03 01:16:23;;;;;;;6.47;3.70;;;;;;;6.13;52.02;96885.47;5112743;28;20496;-65
2022/04/03 01:18:49;;;;;;;4.27;3.87;;;;;;;6.28;51.87;96894.88;5112672;28;20035;-65
2022/04/03 01:21:16;;;;;;;4.53;3.77;;;;;;;6.35;52.04;96898.31;5111249;28;20473;-65
2022/04/03 01:23:43;;;;;;;5.70;3.63;;;;;;;6.28;52.21;96894.03;5111195;28;20522;-67
2022/04/03 01:26:09;;;;;;;4.43;3.93;;;;;;;6.19;52.11;96900.50;5112132;28;20067;-66
2022/04/03 01:28:35;;;;;;;4.50;3.83;;;;;;;6.04;52.22;96876.13;5112193;28;20507;-65
2022/04/03 01:31:01;;;;;;;3.97;3.47;;;;;;;6.05;51.82;96873.31;5111770;28;20089;-65
2022/04/03 01:33:27;;;;;;;4.87;3.87;;;;;;;6.20;52.27;96900.31;5111849;28;20043;-66
2022/04/03 01:35:52;;;;;;;4.33;3.80;;;;;;;6.01;51.90;96866.00;5111616;28;20031;-65
2022/04/03 01:38:18;;;;;;;5.63;3.80;;;;;;;6.17;52.07;96882.25;5111571;28;20047;-66
2022/04/03 01:40:44;;;;;;;4.67;3.90;;;;;;;6.21;52.10;96899.28;5112142;28;20058;-65
2022/04/03 01:43:10;;;;;;;3.97;3.53;;;;;;;6.16;52.04;96859.56;5111704;28;20408;-66
2022/04/03 01:45:37;;;;;;;4.23;3.80;;;;;;;6.31;52.02;96893.66;5111676;28;20461;-65
2022/04/03 01:48:04;;;;;;;6.87;4.00;;;;;;;6.35;51.95;96887.78;5110427;28;20483;-66
2022/04/03 01:50:29;;;;;;;4.03;3.63;;;;;;;6.21;51.83;96887.94;5111464;28;20044;-66
2022/04/03 01:52:55;;;;;;;4.10;3.67;;;;;;;6.25;51.81;96884.72;5110155;28;20066;-65
2022/04/03 01:55:23;;;;;;;4.40;3.77;;;;;;;6.28;51.88;96894.03;5111370;28;20489;-65
2022/04/03 01:57:48;;;;;;;4.13;3.60;;;;;;;6.29;51.71;96891.22;5111493;28;20134;-67
2022/04/03 02:00:14;;;;;;;4.23;3.80;;;;;;;6.27;51.41;96898.50;5111650;28;20122;-65
2022/04/03 02:02:40;;;;;;;5.40;4.07;;;;;;;6.34;51.36;96883.53;5110146;28;20039;-66
2022/04/03 02:05:06;;;;;;;4.20;3.80;;;;;;;6.29;51.47;96885.13;5110070;28;20534;-67
2022/04/03 02:07:33;;;;;;;4.57;3.73;;;;;;;6.14;51.28;96863.38;5110044;28;20495;-67
2022/04/03 02:09:59;;;;;;;4.57;3.93;;;;;;;6.28;51.28;96880.88;5110148;28;20042;-66
2022/04/03 02:12:25;;;;;;;4.23;3.83;;;;;;;6.13;51.39;96873.13;5111096;28;20636;-66
2022/04/03 02:14:51;;;;;;;4.87;4.47;;;;;;;6.16;51.31;96879.81;5109861;28;20066;-66
2022/04/03 02:17:17;;;;;;;7.50;4.33;;;;;;;5.91;50.94;96858.44;5111447;27;20045;-66
2022/04/03 02:19:43;;;;;;;4.77;4.27;;;;;;;6.12;51.67;96874.13;5109632;28;20122;-65
2022/04/03 02:22:09;;;;;;;6.50;4.67;;;;;;;6.15;51.07;96876.34;5109233;28;20906;-65
2022/04/03 02:24:35;;;;;;;5.30;4.50;;;;;;;6.17;51.35;96878.78;5111126;28;20035;-64
2022/04/03 02:27:00;;;;;;;4.97;4.47;;;;;;;6.27;51.42;96889.78;5109505;28;20584;-64
2022/04/03 02:29:26;;;;;;;4.60;4.20;;;;;;;6.17;50.57;96879.63;5110532;28;20040;-65
2022/04/03 02:31:52;;;;;;;4.73;4.27;;;;;;;6.17;50.87;96881.44;5109616;28;20039;-66
2022/04/03 02:34:17;;;;;;;4.40;4.00;;;;;;;6.16;50.84;96870.09;5075710;28;20443;-65
2022/04/03 02:36:43;;;;;;;5.03;4.57;;;;;;;6.32;50.85;96880.28;5075693;28;20472;-65
2022/04/03 02:39:09;;;;;;;4.83;4.33;;;;;;;6.29;50.28;96878.03;5109268;28;20496;-65
2022/04/03 02:41:35;;;;;;;5.70;4.73;;;;;;;6.21;50.77;96878.19;5109480;28;20039;-65
2022/04/03 02:44:03;;;;;;;5.37;4.60;;;;;;;6.27;51.08;96884.53;5092344;28;20454;-66
2022/04/03 02:46:30;;;;;;;6.03;4.80;;;;;;;6.28;50.63;96881.69;5110553;28;20349;-65
2022/04/03 02:48:56;;;;;;;4.50;4.10;;;;;;;6.15;50.71;96872.94;5109560;28;20174;-65
2022/04/03 02:51:21;;;;;;;4.90;4.33;;;;;;;6.15;50.23;96875.56;5091912;28;20160;-67
2022/04/03 02:53:50;;;;;;;4.77;4.27;;;;;;;6.13;50.83;96883.66;5091392;28;20400;-65
2022/04/03 02:56:16;;;;;;;4.60;4.20;;;;;;;6.05;50.52;96883.00;5106811;28;20043;-65
2022/04/03 02:58:41;;;;;;;4.87;4.37;;;;;;;5.95;51.01;96872.84;5109269;28;20051;-65
2022/04/03 03:01:07;;;;;;;5.30;4.77;;;;;;;6.07;50.62;96867.84;5090838;28;20104;-66
2022/04/03 03:03:33;;;;;;;7.23;4.57;;;;;;;6.21;50.30;96891.38;5091568;28;20036;-66
2022/04/03 03:06:01;;;;;;;4.17;3.77;;;;;;;6.19;50.42;96890.78;5110536;28;20096;-65
2022/04/03 03:08:29;;;;;;;5.57;4.50;;;;;;;6.13;50.02;96899.47;5110316;28;20464;-65
2022/04/03 03:10:55;;;;;;;5.47;4.37;;;;;;;6.17;50.76;96905.16;5092170;28;20048;-65
2022/04/03 03:13:21;;;;;;;5.13;4.33;;;;;;;6.10;50.41;96901.69;5109320;28;20036;-65
2022/04/03 03:15:46;;;;;;;4.30;3.87;;;;;;;6.06;50.23;96897.81;5075377;28;20046;-66
2022/04/03 03:18:12;;;;;;;4.50;4.10;;;;;;;6.14;50.73;96893.19;5109193;28;20601;-66
2022/04/03 03:20:38;;;;;;;5.73;3.90;;;;;;;6.14;50.30;96901.09;5110339;28;20046;-67
2022/04/03 03:23:04;;;;;;;5.50;4.27;;;;;;;6.15;50.04;96900.06;5091978;28;20435;-66
2022/04/03 03:25:29;;;;;;;4.77;3.80;;;;;;;5.96;49.88;96869.22;5110291;28;20492;-66
2022/04/03 03:27:55;;;;;;;4.40;4.00;;;;;;;6.12;50.00;96889.13;5109112;28;20035;-66
2022/04/03 03:30:21;;;;;;;4.57;3.87;;;;;;;6.16;49.90;96904.34;5075643;28;20035;-67
2022/04/03 03:32:46;;;;;;;5.93;4.10;;;;;;;6.21;49.77;96895.84;5110264;28;20053;-66
2022/04/03 03:35:12;;;;;;;5.20;3.77;;;;;;;6.20;49.58;96902.13;5111095;28;20120;-66
2022/04/03 03:37:38;;;;;;;5.13;3.53;;;;;;;6.28;49.91;96910.69;5112849;28;20040;-66
2022/04/03 03:40:06;;;;;;;4.10;3.50;;;;;;;6.38;49.66;96911.09;5114109;28;20046;-66
2022/04/03 03:42:33;;;;;;;7.20;3.97;;;;;;;6.35;49.43;96905.44;5112822;28;20053;-66
2022/04/03 03:44:59;;;;;;;5.43;3.63;;;;;;;6.42;49.69;96911.53;5114167;28;20527;-66
2022/04/03 03:47:25;;;;;;;3.47;3.17;;;;;;;6.26;49.57;96886.34;5113881;28;20035;-67
2022/04/03 03:49:51;;;;;;;3.80;3.40;;;;;;;6.34;48.66;96922.25;5114071;28;20048;-66
2022/04/03 03:52:17;;;;;;;3.80;3.50;;;;;;;6.28;49.10;96920.41;5113826;28;20069;-66
2022/04/03 03:54:44;;;;;;;3.67;3.27;;;;;;;6.29;48.66;96920.19;5112541;28;20150;-65
2022/04/03 03:57:12;;;;;;;4.63;3.53;;;;;;;6.36;49.77;96923.69;5112741;28;20054;-66
2022/04/03 03:59:38;;;;;;;3.63;3.30;;;;;;;6.36;48.83;96920.22;5113542;28;20579;-66
2022/04/03 04:02:05;;;;;;;5.00;3.30;;;;;;;6.45;49.15;96919.03;5113766;28;20040;-65
2022/04/03 04:04:31;;;;;;;3.57;3.27;;;;;;;6.23;48.69;96888.53;5113558;28;20492;-66
2022/04/03 04:06:57;;;;;;;5.17;3.57;;;;;;;6.40;48.13;96919.63;5095931;28;20500;-65
2022/04/03 04:09:24;;;;;;;3.30;2.80;;;;;;;6.42;48.04;96933.44;5113078;28;20118;-65
2022/04/03 04:11:50;;;;;;;3.20;2.80;;;;;;;6.35;47.94;96906.22;5112391;28;20050;-65
2022/04/03 04:14:16;;;;;;;3.03;2.73;;;;;;;6.54;47.71;96926.56;5112103;28;20051;-66
2022/04/03 04:16:42;;;;;;;3.60;2.80;;;;;;;6.61;47.93;96937.16;5112500;28;20035;-65
2022/04/03 04:19:09;;;;;;;3.10;2.50;;;;;;;6.67;47.42;96946.91;5095678;28;20043;-66
2022/04/03 04:21:36;;;;;;;3.20;2.80;;;;;;;6.71;47.29;96950.75;5112920;28;20063;-66
2022/04/03 04:24:02;;;;;;;3.07;2.80;;;;;;;6.76;47.48;96950.97;5095392;28;20416;-65
2022/04/03 04:26:28;;;;;;;3.00;2.70;;;;;;;6.58;46.69;96917.25;5113111;28;20073;-66
2022/04/03 04:28:55;;;;;;;3.43;2.40;;;;;;;6.60;47.08;96917.03;5112057;28;20031;-66
2022/04/03 04:31:21;;;;;;;3.93;2.57;;;;;;;6.76;46.32;96951.75;5094572;28;20495;-66
2022/04/03 04:33:47;;;;;;;2.70;2.47;;;;;;;6.70;46.50;96931.47;5112674;28;20073;-65
2022/04/03 04:36:13;;;;;;;3.33;2.40;;;;;;;6.82;46.61;96961.53;5077904;28;20043;-66
2022/04/03 04:38:39;;;;;;;3.17;2.27;;;;;;;6.85;46.16;96966.44;5112743;28;20047;-66
2022/04/03 04:41:05;;;;;;;3.57;2.60;;;;;;;6.92;46.27;96966.41;5112801;28;20054;-66
2022/04/03 04:43:32;;;;;;;3.80;3.00;;;;;;;6.96;47.16;96969.47;5094755;28;20046;-66
2022/04/03 04:45:58;;;;;;;3.37;2.63;;;;;;;6.69;46.05;96972.03;5110173;28;20044;-67
2022/04/03 04:48:25;;;;;;;2.60;2.27;;;;;;;6.80;47.15;96970.66;5111726;28;20131;-66
2022/04/03 04:50:51;;;;;;;3.63;2.23;;;;;;;6.97;46.78;96979.00;5113058;28;20173;-65
2022/04/03 04:53:17;;;;;;;3.80;2.70;;;;;;;7.06;46.84;96985.75;5113216;28;20359;-66
2022/04/03 04:55:43;;;;;;;3.23;2.73;;;;;;;7.05;46.05;96977.00;5111519;28;20040;-66
2022/04/03 04:58:12;;;;;;;2.50;2.30;;;;;;;7.05;46.54;96984.91;5112661;28;20177;-66
2022/04/03 05:00:39;;;;;;;3.37;2.60;;;;;;;7.02;46.36;96987.97;5112812;28;20138;-66
2022/04/03 05:03:05;;;;;;;3.13;2.50;;;;;;;7.00;46.17;96978.59;5112496;28;20126;-66
2022/04/03 05:05:32;;;;;;;9.20;2.90;;;;;;;6.98;46.50;96968.25;5112217;28;20155;-67
2022/04/03 05:07:59;;;;;;;4.97;2.80;;;;;;;7.25;46.32;96998.13;5111103;28;20059;-69
2022/04/03 05:10:26;;;;;;;2.73;2.40;;;;;;;7.45;46.11;97012.19;5112200;28;20046;-67
2022/04/03 05:12:54;;;;;;;2.77;2.57;;;;;;;7.43;45.64;97006.28;5094672;28;20185;-68
2022/04/03 05:15:21;;;;;;;2.90;2.70;;;;;;;7.41;45.96;97010.97;5110812;28;20044;-67
2022/04/03 05:17:47;;;;;;;2.90;2.60;;;;;;;7.50;45.62;97012.38;5093748;28;20043;-66
2022/04/03 05:20:15;;;;;;;2.93;2.60;;;;;;;7.60;45.41;97010.97;5110741;28;20134;-67
2022/04/03 05:22:43;;;;;;;3.43;2.83;;;;;;;7.61;46.36;97017.06;5110265;28;20473;-66
2022/04/03 05:25:11;;;;;;;2.73;2.30;;;;;;;7.56;46.24;97008.94;5127680;27;20138;-66
2022/04/03 05:27:38;;;;;;;4.67;2.90;;;;;;;7.69;45.85;97016.84;5076992;28;20703;-66
2022/04/03 05:30:08;;;;;;;2.77;2.57;;;;;;;7.71;45.83;97022.75;5112121;28;20150;-67
2022/04/03 05:32:37;;;;;;;4.93;2.67;;;;;;;7.80;45.53;97013.59;5110761;28;20292;-66
2022/04/03 05:35:03;;;;;;;3.40;2.73;;;;;;;7.65;45.47;97029.66;5110948;28;20047;-67
2022/04/03 05:37:30;;;;;;;5.37;2.80;;;;;;;7.61;45.20;97017.88;5112163;28;20081;-66
2022/04/03 05:39:56;;;;;;;4.70;3.30;;;;;;;7.66;45.32;97014.59;5093552;28;20040;-66
2022/04/03 05:42:22;;;;;;;6.27;3.40;;;;;;;7.71;45.44;97022.75;5093809;28;20071;-65
2022/04/03 05:44:49;;;;;;;10.30;3.13;;;;;;;7.78;45.47;97026.22;5111405;28;20047;-65
2022/04/03 05:47:19;;;;;;;3.60;2.90;;;;;;;7.61;44.70;97036.34;5111627;28;20120;-66
2022/04/03 05:49:45;;;;;;;3.37;3.07;;;;;;;7.69;44.67;97037.97;5110198;28;20059;-65
2022/04/03 05:52:11;;;;;;;3.20;2.60;;;;;;;7.60;45.07;97039.19;5110400;28;20136;-66
2022/04/03 05:54:37;;;;;;;3.63;2.97;;;;;;;7.61;44.32;97046.13;5093020;28;20484;-66
2022/04/03 05:57:04;;;;;;;2.93;2.63;;;;;;;7.51;44.70;97043.03;5109939;28;20104;-65
2022/04/03 05:59:30;;;;;;;3.07;2.77;;;;;;;7.66;45.36;97041.03;5093744;28;20132;-65
2022/04/03 06:01:57;;;;;;;4.10;3.00;;;;;;;7.80;44.58;97054.03;5093159;28;20043;-65
2022/04/03 06:04:23;;;;;;;4.70;3.20;;;;;;;7.81;44.82;97055.66;5093373;28;20065;-65
2022/04/03 06:06:49;;;;;;;9.73;2.80;;;;;;;7.84;44.90;97062.38;5110295;28;20096;-65
2022/04/03 06:09:15;;;;;;;3.53;2.80;;;;;;;7.63;44.35;97038.78;5109963;28;20050;-65
2022/04/03 06:11:41;;;;;;;5.27;3.37;;;;;;;7.82;44.07;97064.41;5091390;28;20454;-66
2022/04/03 06:14:07;;;;;;;5.20;2.97;;;;;;;7.84;43.92;97076.38;5108489;28;20055;-67
2022/04/03 06:16:33;;;;;;;3.03;2.73;;;;;;;7.71;43.23;97079.03;5100549;27;20039;-66
2022/04/03 06:18:59;;;;;;;3.63;2.70;;;;;;;7.69;43.39;97073.13;5109897;28;20537;-65
2022/04/03 06:21:25;;;;;;;5.97;2.93;;;;;;;7.73;43.97;97073.56;5091190;28;20065;-65
2022/04/03 06:23:51;;;;;;;3.23;2.80;;;;;;;7.76;43.80;97071.31;5110008;28;20227;-65
2022/04/03 06:26:17;;;;;;;4.00;2.93;;;;;;;7.82;43.79;97086.38;5091355;28;20066;-65
2022/04/03 06:28:44;;;;;;;2.73;2.37;;;;;;;7.77;42.83;97080.03;5110117;28;20043;-65
2022/04/03 06:31:10;;;;;;;4.63;2.77;;;;;;;7.78;42.88;97086.97;5108415;28;20031;-66
2022/04/03 06:33:36;;;;;;;8.70;3.07;;;;;;;7.80;43.27;97088.38;5109609;28;20070;-66
2022/04/03 06:36:03;;;;;;;3.43;2.90;;;;;;;7.90;42.79;97103.84;5092449;28;20035;-68
2022/04/03 06:38:29;;;;;;;3.43;2.73;;;;;;;7.97;42.28;97109.94;5076776;28;20035;-68
2022/04/03 06:40:58;;;;;;;8.00;3.30;;;;;;;8.22;42.82;97118.88;5076448;28;20051;-68
2022/04/03 06:43:26;;;;;;;3.37;2.43;;;;;;;8.06;41.62;97112.19;5109714;27;20451;-68
2022/04/03 06:45:53;;;;;;;4.07;2.70;;;;;;;8.15;41.67;97118.06;5109289;28;20035;-68
2022/04/03 06:48:20;;;;;;;4.93;3.40;;;;;;;8.06;41.44;97130.69;5109361;28;20044;-68
2022/04/03 06:50:47;;;;;;;5.90;3.13;;;;;;;8.07;41.45;97139.44;5092690;28;20125;-69
2022/04/03 06:53:13;;;;;;;2.97;2.70;;;;;;;8.20;41.78;97137.59;5075763;28;20031;-69
2022/04/03 06:55:39;;;;;;;3.10;2.30;;;;;;;8.28;41.08;97139.25;5075480;28;20035;-68
2022/04/03 06:58:07;;;;;;;3.90;3.17;;;;;;;8.20;41.49;97145.53;5109239;27;20063;-71
2022/04/03 07:00:34;;;;;;;4.27;2.63;;;;;;;8.15;41.04;97118.88;5110818;28;20046;-69
2022/04/03 07:03:01;;;;;;;3.33;2.70;;;;;;;8.06;41.28;97127.22;5059032;28;20440;-71
2022/04/03 07:05:27;;;;;;;4.77;2.63;;;;;;;8.28;40.88;97157.75;5076279;28;20040;-70
2022/04/03 07:07:53;;;;;;;2.83;2.50;;;;;;;8.30;40.50;97153.88;5082591;28;20044;-68
2022/04/03 07:10:20;;;;;;;4.00;2.73;;;;;;;8.61;40.45;97160.38;5111253;28;20070;-79
2022/04/03 07:12:46;;;;;;;6.40;2.80;;;;;;;8.59;40.65;97142.88;5130808;27;20048;-79
2022/04/03 07:15:13;;;;;;;2.83;2.33;;;;;;;8.67;39.46;97159.56;5080287;28;20051;-80
2022/04/03 07:17:45;;;;;;;2.65;2.28;;;;;;;8.96;39.83;97169.66;5079325;28;20078;-81
2022/04/03 07:20:15;;;;;;;4.23;2.80;;;;;;;8.91;39.83;97183.53;5112951;28;20472;-78
2022/04/03 07:22:42;;;;;;;2.87;2.40;;;;;;;8.71;39.36;97118.44;5113003;28;20054;-77
2022/04/03 07:25:13;;;;;;;4.28;3.00;;;;;;;9.34;39.46;97189.09;5097117;28;20557;-76
2022/04/03 07:27:40;;;;;;;3.15;2.75;;;;;;;9.26;38.61;97192.78;5114961;28;20074;-78
2022/04/03 07:30:08;;;;;;;2.92;2.63;;;;;;;9.06;37.65;97162.91;5097050;28;20134;-78
2022/04/03 07:32:42;;;;;;;3.37;2.80;;;;;;;9.20;38.87;97193.63;5114689;28;20519;-77
2022/04/03 07:35:10;;;;;;;5.35;2.90;;;;;;;9.40;38.27;97210.28;5096873;27;20115;-79
2022/04/03 07:37:36;;;;;;;3.72;2.63;;;;;;;9.35;38.29;97212.72;5114133;28;20039;-74
2022/04/03 07:40:04;;;;;;;3.05;2.70;;;;;;;9.36;38.05;97219.66;5116257;28;20043;-81
2022/04/03 07:42:30;;;;;;;3.63;2.45;;;;;;;9.21;37.60;97219.06;5096651;28;20051;-76
2022/04/03 07:44:56;;;;;;;2.85;2.42;;;;;;;9.24;38.38;97218.66;5080159;28;20051;-80
2022/04/03 07:47:29;;;;;;;4.22;2.97;;;;;;;9.28;38.70;97221.72;5079567;28;20061;-79
2022/04/03 07:49:56;;;;;;;5.47;3.13;;;;;;;9.39;37.94;97227.19;5081430;28;20551;-82
2022/04/03 07:52:23;;;;;;;3.38;2.88;;;;;;;9.10;37.24;97237.44;5116471;27;20042;-77
2022/04/03 07:54:49;;;;;;;5.15;2.72;;;;;;;8.95;37.46;97242.97;5079520;28;20115;-80
2022/04/03 07:57:21;;;;;;;4.00;3.03;;;;;;;9.12;38.08;97244.16;5060848;28;20512;-77
2022/04/03 07:59:50;;;;;;;7.53;3.63;;;;;;;9.01;38.67;97258.03;5077750;28;20156;-76
2022/04/03 08:02:16;;;;;;;7.18;3.10;;;;;;;8.85;38.67;97253.16;5104689;27;20087;-77
2022/04/03 08:04:44;;;;;;;3.35;3.05;;;;;;;8.90;39.10;97257.84;5095889;28;20058;-77
2022/04/03 08:07:11;;;;;;;7.10;3.43;;;;;;;8.93;38.30;97263.56;5079072;28;20473;-76
2022/04/03 08:09:37;;;;;;;9.00;3.45;;;;;;;9.02;38.93;97259.66;5061665;28;20127;-71
2022/04/03 08:12:04;;;;;;;5.20;3.45;;;;;;;9.21;38.22;97266.75;5078726;28;20035;-76
2022/04/03 08:14:32;;;;;;;5.03;3.27;;;;;;;9.12;38.38;97249.44;5060905;28;20043;-77
2022/04/03 08:16:59;;;;;;;3.72;3.10;;;;;;;9.00;38.04;97268.81;5060660;28;20039;-77
2022/04/03 08:19:25;;;;;;;7.50;3.20;;;;;;;8.96;37.80;97262.31;5060989;28;20047;-74
2022/04/03 08:21:53;;;;;;;8.82;3.83;;;;;;;8.99;38.53;97286.56;5059797;28;20101;-74
2022/04/03 08:24:21;;;;;;;8.20;3.88;;;;;;;8.97;38.50;97271.88;5095356;28;20146;-78
2022/04/03 08:26:47;;;;;;;5.88;3.13;;;;;;;9.07;38.45;97270.44;5087939;28;20059;-80
2022/04/03 08:29:13;;;;;;;6.97;3.28;;;;;;;9.13;38.07;97276.75;5097030;28;20043;-76
2022/04/03 08:31:43;;;;;;;6.28;3.95;;;;;;;9.27;40.05;97295.03;5060886;28;20127;-74
2022/04/03 08:34:10;;;;;;;14.38;4.10;;;;;;;9.33;39.37;97277.53;5094649;28;20088;-70
2022/04/03 08:36:37;;;;;;;5.40;3.90;;;;;;;9.49;39.96;97283.19;5094895;28;20081;-73
2022/04/03 08:39:02;;;;;;;4.18;3.53;;;;;;;9.63;38.27;97300.69;5078171;28;20071;-78
2022/04/03 08:41:29;;;;;;;4.47;3.92;;;;;;;9.55;37.90;97278.88;5078217;28;20084;-74
2022/04/03 08:43:56;;;;;;;6.90;4.05;;;;;;;9.60;37.16;97300.28;5094481;28;20048;-70
2022/04/03 08:46:24;;;;;;;8.20;4.22;;;;;;;9.84;38.78;97300.38;5077374;28;20135;-80
2022/04/03 08:48:50;;;;;;;6.90;3.65;;;;;;;9.72;39.03;97299.41;5090656;28;20043;-78
2022/04/03 08:51:19;;;;;;;6.63;4.28;;;;;;;9.64;40.21;97286.41;5074172;28;20040;-73
2022/04/03 08:53:46;;;;;;;7.75;4.47;;;;;;;9.78;40.92;97298.59;5074618;28;20036;-73
2022/04/03 08:56:13;;;;;;;14.68;4.38;;;;;;;9.72;41.07;97304.72;5072417;28;20134;-77
2022/04/03 08:58:39;;;;;;;5.63;3.97;;;;;;;9.71;41.61;97297.81;5071996;28;20044;-72
2022/04/03 09:01:06;;;;;;;8.73;4.70;;;;;;;9.67;41.92;97312.47;5043964;28;20052;-80
2022/04/03 09:03:33;;;;;;;7.25;4.28;;;;;;;9.97;41.08;97307.47;5058242;28;20061;-74
2022/04/03 09:06:17;;;;;;;9.73;4.65;;;;;;;10.47;40.56;97327.84;5091781;28;20043;-77
2022/04/03 09:08:44;;;;;;;10.05;5.00;;;;;;;10.34;41.52;97276.72;5074889;28;20058;-75
2022/04/03 09:11:12;;;;;;;7.47;4.30;;;;;;;10.67;39.73;97317.13;5076104;28;20038;-79
2022/04/03 09:13:39;;;;;;;6.43;3.92;;;;;;;10.72;40.60;97317.28;5094723;28;20043;-80
2022/04/03 09:16:06;;;;;;;6.68;4.80;;;;;;;10.79;41.16;97329.50;5111213;28;20624;-77
2022/04/03 09:19:01;;;;;;;7.95;4.72;;;;;;;10.96;39.98;97335.09;5075476;28;20096;-73
2022/04/03 09:21:28;;;;;;;6.78;4.60;;;;;;;10.78;40.32;97335.03;5071993;28;20192;-76
2022/04/03 09:24:06;;;;;;;9.43;5.30;;;;;;;10.94;40.03;97332.66;5086411;28;20046;-73
2022/04/03 09:26:34;;;;;;;13.35;6.05;;;;;;;11.23;39.62;97336.47;5107630;28;20334;-76
2022/04/03 09:29:09;;;;;;;11.65;6.20;;;;;;;11.49;39.82;97342.38;5090820;28;20493;-73
2022/04/03 09:31:36;;;;;;;9.07;5.57;;;;;;;11.45;39.84;97340.38;5106741;28;20062;-72
2022/04/03 09:34:07;;;;;;;9.23;4.60;;;;;;;12.21;39.77;97349.56;5108224;28;20043;-73
2022/04/03 09:36:34;;;;;;;;;;;;;;;13.15;39.62;97361.19;5109564;28;20043;-72
2022/04/03 09:39:28;;;;;;;32.45;5.85;;;;;;;14.08;39.12;97363.84;5075898;28;20018;-73
2022/04/03 09:42:05;;;;;;;9.77;5.10;;;;;;;15.25;39.26;97347.94;5106999;28;20040;-74
2022/04/03 09:44:42;;;;;;;16.90;5.32;;;;;;;16.24;36.84;97384.44;5106793;28;20607;-76
2022/04/03 09:47:33;;;;;;;8.50;4.20;;;;;;;17.41;32.41;97369.38;5092652;28;20051;-76
2022/04/03 09:50:08;;;;;;;5.53;3.53;;;;;;;17.67;30.59;97357.78;5108568;28;20055;-75
2022/04/03 09:52:45;;;;;;;7.57;3.80;;;;;;;17.67;27.98;97357.78;5074037;28;20729;-74
2022/04/03 09:55:15;;;;;;;6.57;3.80;;;;;;;17.24;27.96;97368.69;5108173;28;20479;-73
2022/04/03 09:57:44;;;;;;;5.47;4.05;;;;;;;16.67;27.10;97363.84;5073149;28;20059;-73
2022/04/03 10:00:14;;;;;;;20.13;10.65;;;;;;;16.85;27.51;97360.03;5074031;28;20055;-74
2022/04/03 10:02:46;;;;;;;;;;;;;;;17.55;26.06;97362.53;5066097;28;20068;-72
2022/04/03 10:05:15;;;;;;;5.88;3.95;;;;;;;18.10;25.69;97365.59;5089630;28;20403;-72
2022/04/03 10:07:41;;;;;;;5.32;3.50;;;;;;;18.23;23.43;97354.38;5073394;28;20067;-73
2022/04/03 10:10:08;;;;;;;7.38;3.83;;;;;;;18.69;25.61;97353.53;5072653;28;20180;-69
2022/04/03 10:12:35;;;;;;;4.55;3.38;;;;;;;19.24;23.62;97353.59;5106391;28;20138;-70
2022/04/03 10:15:04;;;;;;;5.07;3.47;;;;;;;19.34;22.69;97353.63;5073086;28;20108;-71
2022/04/03 10:17:30;;;;;;;5.90;4.03;;;;;;;19.21;23.89;97362.22;5106795;27;20403;-69
2022/04/03 10:19:56;;;;;;;6.05;3.78;;;;;;;19.07;23.64;97353.06;5072366;28;20047;-69
2022/04/03 10:22:27;;;;;;;8.02;5.43;;;;;;;18.89;23.21;97350.06;5106541;28;20051;-70
2022/04/03 10:24:56;;;;;;;7.85;4.60;;;;;;;18.77;24.28;97365.63;5073069;28;20035;-70
2022/04/03 10:27:27;;;;;;;9.60;6.38;;;;;;;18.04;22.23;97359.38;5072920;28;20504;-69
2022/04/03 10:29:58;;;;;;;9.05;6.03;;;;;;;18.08;24.71;97343.56;5072460;28;20043;-70
2022/04/03 10:32:28;;;;;;;8.00;3.88;;;;;;;18.37;23.42;97352.84;5106358;28;20051;-70
2022/04/03 10:35:01;;;;;;;6.30;3.50;;;;;;;18.08;22.27;97354.31;5090161;28;20050;-70
2022/04/03 10:37:41;;;;;;;6.22;3.47;;;;;;;18.52;22.61;97376.28;5089849;28;20397;-71
2022/04/03 10:40:09;;;;;;;5.10;3.20;;;;;;;18.42;23.57;97369.81;5072757;28;20044;-74
2022/04/03 10:42:55;;;;;;;8.88;3.45;;;;;;;18.18;23.87;97354.34;5089632;28;20515;-74
2022/04/03 10:45:41;;;;;;;4.10;3.05;;;;;;;17.59;23.36;97353.72;5106285;28;20043;-73
2022/04/03 10:48:30;;;;;;;4.55;3.42;;;;;;;17.20;22.78;97386.38;5089998;28;20419;-73
2022/04/03 10:51:10;;;;;;;5.25;3.28;;;;;;;17.00;23.65;97392.34;5088812;28;20726;-71
2022/04/03 10:53:41;;;;;;;4.43;3.15;;;;;;;16.82;23.90;97390.03;5105859;28;20052;-76
2022/04/03 10:56:10;;;;;;;5.40;2.63;;;;;;;17.19;22.39;97404.31;5089642;28;20854;-72
2022/04/03 10:58:44;;;;;;;4.30;2.70;;;;;;;17.07;23.47;97394.84;5087750;28;20055;-71
2022/04/03 11:01:21;;;;;;;3.97;3.13;;;;;;;17.15;24.04;97363.00;5073130;28;20054;-71
2022/04/03 11:04:01;;;;;;;4.00;3.17;;;;;;;17.25;22.06;97397.16;5072964;28;20492;-71
2022/04/03 11:06:29;;;;;;;6.65;3.88;;;;;;;17.28;22.16;97418.09;5106612;28;20047;-72
2022/04/03 11:09:00;;;;;;;8.68;4.32;;;;;;;17.22;22.51;97417.22;5088834;28;20043;-71
2022/04/03 11:11:44;;;;;;;7.43;3.05;;;;;;;17.34;22.81;97411.72;5073422;28;20508;-72
2022/04/03 11:14:12;;;;;;;6.07;2.80;;;;;;;16.91;23.32;97366.25;5073434;28;20040;-71
2022/04/03 11:16:53;;;;;;;6.68;2.63;;;;;;;17.20;23.38;97419.38;5106640;28;20501;-72
2022/04/03 11:19:33;;;;;;;4.77;2.80;;;;;;;17.07;23.68;97422.44;5056075;28;20072;-72
2022/04/03 11:22:00;;;;;;;5.13;2.88;;;;;;;17.02;23.32;97421.59;5055353;28;20052;-74
2022/04/03 11:24:29;;;;;;;4.78;3.00;;;;;;;17.07;24.11;97421.66;5086110;28;20094;-73
2022/04/03 11:26:55;;;;;;;8.45;3.20;;;;;;;17.08;22.05;97432.13;5069132;28;20066;-73
2022/04/03 11:29:22;;;;;;;6.55;3.08;;;;;;;17.08;23.04;97423.28;5053112;28;20046;-73
2022/04/03 11:31:49;;;;;;;5.85;3.20;;;;;;;17.13;21.94;97431.38;5035479;28;20043;-73
2022/04/03 11:34:15;;;;;;;6.90;2.67;;;;;;;16.96;21.61;97430.66;5085507;28;20040;-74
2022/04/03 11:36:41;;;;;;;4.07;2.83;;;;;;;16.88;22.10;97434.59;5069647;28;20044;-72
2022/04/03 11:39:11;;;;;;;6.63;3.10;;;;;;;16.56;22.36;97455.91;5053334;28;20055;-73
2022/04/03 11:41:38;;;;;;;3.22;2.80;;;;;;;16.46;23.63;97439.72;5085937;28;20121;-74